sensor_id;sensor_type;location;lat;lon;timestamp;temperature;humidity
20672;DHT22;10495;50.922;4.760;2022-11-11T00:02:19;10.70;88.80
20672;DHT22;10495;50.922;4.760;2022-11-11T00:04:45;10.60;88.70
20672;DHT22;10495;50.922;4.760;2022-11-11T00:07:10;10.60;88.70
20672;DHT22;10495;50.922;4.760;2022-11-11T00:09:36;10.70;88.40
20672;DHT22;10495;50.922;4.760;2022-11-11T00:12:02;10.90;87.30
20672;DHT22;10495;50.922;4.760;2022-11-11T00:14:28;10.70;87.40
20672;DHT22;10495;50.922;4.760;2022-11-11T00:16:53;10.60;88.00
20672;DHT22;10495;50.922;4.760;2022-11-11T00:19:38;10.60;88.00
20672;DHT22;10495;50.922;4.760;2022-11-11T00:22:22;10.60;87.90
20672;DHT22;10495;50.922;4.760;2022-11-11T00:25:08;10.50;87.90
20672;DHT22;10495;50.922;4.760;2022-11-11T00:27:34;10.50;88.00
20672;DHT22;10495;50.922;4.760;2022-11-11T00:30:00;10.40;88.10
20672;DHT22;10495;50.922;4.760;2022-11-11T00:32:25;10.40;87.80
20672;DHT22;10495;50.922;4.760;2022-11-11T00:34:57;10.40;87.60
20672;DHT22;10495;50.922;4.760;2022-11-11T00:37:43;10.40;87.80
20672;DHT22;10495;50.922;4.760;2022-11-11T00:40:10;10.30;88.20
20672;DHT22;10495;50.922;4.760;2022-11-11T00:42:36;10.30;88.10
20672;DHT22;10495;50.922;4.760;2022-11-11T00:45:02;10.10;88.40
20672;DHT22;10495;50.922;4.760;2022-11-11T00:47:27;10.20;88.50
20672;DHT22;10495;50.922;4.760;2022-11-11T00:50:20;10.10;88.50
20672;DHT22;10495;50.922;4.760;2022-11-11T00:53:14;10.10;88.20
20672;DHT22;10495;50.922;4.760;2022-11-11T00:55:40;10.10;88.50
20672;DHT22;10495;50.922;4.760;2022-11-11T00:58:05;10.00;88.50
20672;DHT22;10495;50.922;4.760;2022-11-11T01:00:31;10.00;88.60
20672;DHT22;10495;50.922;4.760;2022-11-11T01:02:57;10.10;88.60
20672;DHT22;10495;50.922;4.760;2022-11-11T01:05:24;10.20;88.50
20672;DHT22;10495;50.922;4.760;2022-11-11T01:07:50;10.10;88.30
20672;DHT22;10495;50.922;4.760;2022-11-11T01:10:17;10.10;88.40
20672;DHT22;10495;50.922;4.760;2022-11-11T01:13:13;10.00;88.80
20672;DHT22;10495;50.922;4.760;2022-11-11T01:15:41;10.00;88.80
20672;DHT22;10495;50.922;4.760;2022-11-11T01:18:08;10.10;88.80
20672;DHT22;10495;50.922;4.760;2022-11-11T01:20:35;10.10;88.40
20672;DHT22;10495;50.922;4.760;2022-11-11T01:23:06;10.00;88.70
20672;DHT22;10495;50.922;4.760;2022-11-11T01:25:37;10.10;88.70
20672;DHT22;10495;50.922;4.760;2022-11-11T01:28:03;10.20;88.70
20672;DHT22;10495;50.922;4.760;2022-11-11T01:30:31;10.20;88.80
20672;DHT22;10495;50.922;4.760;2022-11-11T01:32:58;10.30;88.90
20672;DHT22;10495;50.922;4.760;2022-11-11T01:35:23;10.20;89.00
20672;DHT22;10495;50.922;4.760;2022-11-11T01:37:49;10.30;89.20
20672;DHT22;10495;50.922;4.760;2022-11-11T01:40:15;10.30;89.50
20672;DHT22;10495;50.922;4.760;2022-11-11T01:42:48;10.40;89.30
20672;DHT22;10495;50.922;4.760;2022-11-11T01:48:16;10.40;89.20
20672;DHT22;10495;50.922;4.760;2022-11-11T01:51:04;10.30;88.90
20672;DHT22;10495;50.922;4.760;2022-11-11T01:53:30;10.40;88.90
20672;DHT22;10495;50.922;4.760;2022-11-11T01:55:58;10.50;88.60
20672;DHT22;10495;50.922;4.760;2022-11-11T01:58:25;10.60;88.00
20672;DHT22;10495;50.922;4.760;2022-11-11T02:00:51;10.50;87.80
20672;DHT22;10495;50.922;4.760;2022-11-11T02:03:18;10.30;88.90
20672;DHT22;10495;50.922;4.760;2022-11-11T02:05:45;10.10;89.20
20672;DHT22;10495;50.922;4.760;2022-11-11T02:08:14;10.10;89.10
20672;DHT22;10495;50.922;4.760;2022-11-11T02:10:43;10.10;89.10
20672;DHT22;10495;50.922;4.760;2022-11-11T02:13:14;10.00;89.60
20672;DHT22;10495;50.922;4.760;2022-11-11T02:15:59;10.10;89.50
20672;DHT22;10495;50.922;4.760;2022-11-11T02:18:25;10.00;89.40
20672;DHT22;10495;50.922;4.760;2022-11-11T02:20:51;9.90;90.20
20672;DHT22;10495;50.922;4.760;2022-11-11T02:23:23;9.90;90.00
20672;DHT22;10495;50.922;4.760;2022-11-11T02:25:51;10.10;89.40
20672;DHT22;10495;50.922;4.760;2022-11-11T02:28:19;10.10;89.40
20672;DHT22;10495;50.922;4.760;2022-11-11T02:30:46;10.20;89.60
20672;DHT22;10495;50.922;4.760;2022-11-11T02:33:11;10.10;89.40
20672;DHT22;10495;50.922;4.760;2022-11-11T02:35:41;10.30;89.00
20672;DHT22;10495;50.922;4.760;2022-11-11T02:38:09;10.40;88.20
20672;DHT22;10495;50.922;4.760;2022-11-11T02:40:40;10.20;88.90
20672;DHT22;10495;50.922;4.760;2022-11-11T02:43:26;10.20;89.20
20672;DHT22;10495;50.922;4.760;2022-11-11T02:45:52;10.30;88.90
20672;DHT22;10495;50.922;4.760;2022-11-11T02:48:18;10.30;89.00
20672;DHT22;10495;50.922;4.760;2022-11-11T02:50:44;10.20;89.20
20672;DHT22;10495;50.922;4.760;2022-11-11T02:53:09;10.20;89.50
20672;DHT22;10495;50.922;4.760;2022-11-11T02:55:35;10.20;89.50
20672;DHT22;10495;50.922;4.760;2022-11-11T02:58:01;10.00;89.30
20672;DHT22;10495;50.922;4.760;2022-11-11T03:00:26;9.90;89.70
20672;DHT22;10495;50.922;4.760;2022-11-11T03:02:52;9.90;90.00
20672;DHT22;10495;50.922;4.760;2022-11-11T03:05:18;9.90;89.60
20672;DHT22;10495;50.922;4.760;2022-11-11T03:07:43;10.10;89.30
20672;DHT22;10495;50.922;4.760;2022-11-11T03:10:09;10.00;88.50
20672;DHT22;10495;50.922;4.760;2022-11-11T03:12:35;10.00;88.50
20672;DHT22;10495;50.922;4.760;2022-11-11T03:15:00;10.00;88.60
20672;DHT22;10495;50.922;4.760;2022-11-11T03:17:26;10.00;88.50
20672;DHT22;10495;50.922;4.760;2022-11-11T03:20:12;10.00;88.00
20672;DHT22;10495;50.922;4.760;2022-11-11T03:23:14;10.00;88.00
20672;DHT22;10495;50.922;4.760;2022-11-11T03:25:44;9.90;87.90
20672;DHT22;10495;50.922;4.760;2022-11-11T03:28:11;9.90;88.70
20672;DHT22;10495;50.922;4.760;2022-11-11T03:30:39;9.90;88.20
20672;DHT22;10495;50.922;4.760;2022-11-11T03:33:05;9.90;88.30
20672;DHT22;10495;50.922;4.760;2022-11-11T03:35:31;9.90;88.20
20672;DHT22;10495;50.922;4.760;2022-11-11T03:37:57;9.90;88.00
20672;DHT22;10495;50.922;4.760;2022-11-11T03:40:50;9.90;88.30
20672;DHT22;10495;50.922;4.760;2022-11-11T03:43:18;9.90;88.30
20672;DHT22;10495;50.922;4.760;2022-11-11T03:45:45;9.90;88.30
20672;DHT22;10495;50.922;4.760;2022-11-11T03:48:11;9.90;88.30
20672;DHT22;10495;50.922;4.760;2022-11-11T03:50:36;9.90;87.90
20672;DHT22;10495;50.922;4.760;2022-11-11T03:53:02;9.80;88.10
20672;DHT22;10495;50.922;4.760;2022-11-11T03:55:28;9.70;88.40
20672;DHT22;10495;50.922;4.760;2022-11-11T03:57:54;9.80;88.40
20672;DHT22;10495;50.922;4.760;2022-11-11T04:00:24;9.70;88.30
20672;DHT22;10495;50.922;4.760;2022-11-11T04:02:50;9.60;88.20
20672;DHT22;10495;50.922;4.760;2022-11-11T04:05:35;9.60;88.30
20672;DHT22;10495;50.922;4.760;2022-11-11T04:08:20;9.40;89.00
20672;DHT22;10495;50.922;4.760;2022-11-11T04:11:07;9.40;88.60
20672;DHT22;10495;50.922;4.760;2022-11-11T04:13:34;9.50;88.60
20672;DHT22;10495;50.922;4.760;2022-11-11T04:16:18;9.40;88.40
20672;DHT22;10495;50.922;4.760;2022-11-11T04:18:44;9.40;88.40
20672;DHT22;10495;50.922;4.760;2022-11-11T04:21:28;9.40;88.30
20672;DHT22;10495;50.922;4.760;2022-11-11T04:26:57;9.20;88.00
20672;DHT22;10495;50.922;4.760;2022-11-11T04:29:23;9.20;88.10
20672;DHT22;10495;50.922;4.760;2022-11-11T04:32:05;9.10;88.00
20672;DHT22;10495;50.922;4.760;2022-11-11T04:34:54;9.10;88.00
20672;DHT22;10495;50.922;4.760;2022-11-11T04:37:21;9.10;88.00
20672;DHT22;10495;50.922;4.760;2022-11-11T04:39:47;9.10;88.00
20672;DHT22;10495;50.922;4.760;2022-11-11T04:42:32;9.00;88.00
20672;DHT22;10495;50.922;4.760;2022-11-11T04:44:59;9.00;88.00
20672;DHT22;10495;50.922;4.760;2022-11-11T04:48:02;9.00;87.90
20672;DHT22;10495;50.922;4.760;2022-11-11T04:50:39;8.90;87.90
20672;DHT22;10495;50.922;4.760;2022-11-11T04:53:11;8.90;88.00
20672;DHT22;10495;50.922;4.760;2022-11-11T04:55:37;8.90;88.00
20672;DHT22;10495;50.922;4.760;2022-11-11T04:58:23;8.90;88.20
20672;DHT22;10495;50.922;4.760;2022-11-11T05:00:49;8.90;88.30
20672;DHT22;10495;50.922;4.760;2022-11-11T05:03:16;8.90;88.20
20672;DHT22;10495;50.922;4.760;2022-11-11T05:05:43;8.80;88.30
20672;DHT22;10495;50.922;4.760;2022-11-11T05:08:28;8.80;88.20
20672;DHT22;10495;50.922;4.760;2022-11-11T05:11:13;8.90;88.40
20672;DHT22;10495;50.922;4.760;2022-11-11T05:13:38;9.00;87.40
20672;DHT22;10495;50.922;4.760;2022-11-11T05:16:26;8.90;87.80
20672;DHT22;10495;50.922;4.760;2022-11-11T05:19:12;8.80;88.30
20672;DHT22;10495;50.922;4.760;2022-11-11T05:22:04;8.80;88.30
20672;DHT22;10495;50.922;4.760;2022-11-11T05:24:31;8.80;88.50
20672;DHT22;10495;50.922;4.760;2022-11-11T05:27:15;8.90;88.30
20672;DHT22;10495;50.922;4.760;2022-11-11T05:29:40;8.80;88.60
20672;DHT22;10495;50.922;4.760;2022-11-11T05:32:06;8.80;88.70
20672;DHT22;10495;50.922;4.760;2022-11-11T05:34:32;8.80;88.70
20672;DHT22;10495;50.922;4.760;2022-11-11T05:36:58;8.70;89.10
20672;DHT22;10495;50.922;4.760;2022-11-11T05:39:23;8.60;89.60
20672;DHT22;10495;50.922;4.760;2022-11-11T05:41:49;8.50;90.50
20672;DHT22;10495;50.922;4.760;2022-11-11T05:44:14;8.60;90.40
20672;DHT22;10495;50.922;4.760;2022-11-11T05:46:40;8.70;90.20
20672;DHT22;10495;50.922;4.760;2022-11-11T05:49:06;8.90;89.80
20672;DHT22;10495;50.922;4.760;2022-11-11T05:51:41;8.90;89.90
20672;DHT22;10495;50.922;4.760;2022-11-11T05:54:06;8.90;89.80
20672;DHT22;10495;50.922;4.760;2022-11-11T05:56:32;8.90;89.50
20672;DHT22;10495;50.922;4.760;2022-11-11T05:58:58;8.80;89.50
20672;DHT22;10495;50.922;4.760;2022-11-11T06:01:23;8.90;89.40
20672;DHT22;10495;50.922;4.760;2022-11-11T06:03:49;8.80;89.70
20672;DHT22;10495;50.922;4.760;2022-11-11T06:06:14;8.80;89.90
20672;DHT22;10495;50.922;4.760;2022-11-11T06:08:40;8.80;90.00
20672;DHT22;10495;50.922;4.760;2022-11-11T06:11:06;8.80;90.00
20672;DHT22;10495;50.922;4.760;2022-11-11T06:13:32;8.90;89.60
20672;DHT22;10495;50.922;4.760;2022-11-11T06:15:58;8.90;89.60
20672;DHT22;10495;50.922;4.760;2022-11-11T06:18:25;8.90;89.30
20672;DHT22;10495;50.922;4.760;2022-11-11T06:20:58;8.80;89.70
20672;DHT22;10495;50.922;4.760;2022-11-11T06:23:25;8.80;89.80
20672;DHT22;10495;50.922;4.760;2022-11-11T06:25:51;8.90;89.50
20672;DHT22;10495;50.922;4.760;2022-11-11T06:28:36;8.70;89.70
20672;DHT22;10495;50.922;4.760;2022-11-11T06:31:02;8.80;89.60
20672;DHT22;10495;50.922;4.760;2022-11-11T06:33:29;8.70;90.10
20672;DHT22;10495;50.922;4.760;2022-11-11T06:35:55;8.80;89.50
20672;DHT22;10495;50.922;4.760;2022-11-11T06:38:21;8.90;89.60
20672;DHT22;10495;50.922;4.760;2022-11-11T06:40:46;8.80;89.40
20672;DHT22;10495;50.922;4.760;2022-11-11T06:43:12;8.80;89.50
20672;DHT22;10495;50.922;4.760;2022-11-11T06:45:38;8.80;89.70
20672;DHT22;10495;50.922;4.760;2022-11-11T06:48:04;8.80;89.80
20672;DHT22;10495;50.922;4.760;2022-11-11T06:50:33;8.70;89.80
20672;DHT22;10495;50.922;4.760;2022-11-11T06:53:28;8.60;90.00
20672;DHT22;10495;50.922;4.760;2022-11-11T06:55:54;8.60;90.30
20672;DHT22;10495;50.922;4.760;2022-11-11T06:58:20;8.50;90.20
20672;DHT22;10495;50.922;4.760;2022-11-11T07:00:47;8.60;90.10
20672;DHT22;10495;50.922;4.760;2022-11-11T07:03:16;8.60;90.30
20672;DHT22;10495;50.922;4.760;2022-11-11T07:05:43;8.80;90.20
20672;DHT22;10495;50.922;4.760;2022-11-11T07:08:11;8.60;90.20
20672;DHT22;10495;50.922;4.760;2022-11-11T07:10:38;8.70;90.30
20672;DHT22;10495;50.922;4.760;2022-11-11T07:13:06;8.70;90.40
20672;DHT22;10495;50.922;4.760;2022-11-11T07:15:32;8.70;90.30
20672;DHT22;10495;50.922;4.760;2022-11-11T07:17:58;8.70;90.40
20672;DHT22;10495;50.922;4.760;2022-11-11T07:20:24;8.90;90.20
20672;DHT22;10495;50.922;4.760;2022-11-11T07:22:50;8.90;90.10
20672;DHT22;10495;50.922;4.760;2022-11-11T07:25:15;8.90;90.00
20672;DHT22;10495;50.922;4.760;2022-11-11T07:27:41;8.90;90.20
20672;DHT22;10495;50.922;4.760;2022-11-11T07:30:08;8.80;90.20
20672;DHT22;10495;50.922;4.760;2022-11-11T07:32:34;8.80;90.30
20672;DHT22;10495;50.922;4.760;2022-11-11T07:35:00;8.90;90.40
20672;DHT22;10495;50.922;4.760;2022-11-11T07:37:25;8.90;90.40
20672;DHT22;10495;50.922;4.760;2022-11-11T07:39:51;9.10;90.20
20672;DHT22;10495;50.922;4.760;2022-11-11T07:42:17;9.10;90.10
20672;DHT22;10495;50.922;4.760;2022-11-11T07:44:42;9.30;90.10
20672;DHT22;10495;50.922;4.760;2022-11-11T07:47:09;9.30;90.20
20672;DHT22;10495;50.922;4.760;2022-11-11T07:49:34;9.50;90.30
20672;DHT22;10495;50.922;4.760;2022-11-11T07:52:00;9.60;90.10
20672;DHT22;10495;50.922;4.760;2022-11-11T07:54:27;9.80;90.00
20672;DHT22;10495;50.922;4.760;2022-11-11T07:56:52;9.90;89.50
20672;DHT22;10495;50.922;4.760;2022-11-11T07:59:18;10.00;90.10
20672;DHT22;10495;50.922;4.760;2022-11-11T08:01:44;10.10;89.70
20672;DHT22;10495;50.922;4.760;2022-11-11T08:04:10;10.30;88.70
20672;DHT22;10495;50.922;4.760;2022-11-11T08:06:35;10.40;88.20
20672;DHT22;10495;50.922;4.760;2022-11-11T08:09:01;10.50;88.20
20672;DHT22;10495;50.922;4.760;2022-11-11T08:11:27;10.60;88.20
20672;DHT22;10495;50.922;4.760;2022-11-11T08:14:11;10.90;87.00
20672;DHT22;10495;50.922;4.760;2022-11-11T08:16:37;10.90;86.60
20672;DHT22;10495;50.922;4.760;2022-11-11T08:19:03;11.20;86.40
20672;DHT22;10495;50.922;4.760;2022-11-11T08:21:28;11.10;85.80
20672;DHT22;10495;50.922;4.760;2022-11-11T08:23:54;11.00;85.60
20672;DHT22;10495;50.922;4.760;2022-11-11T08:26:21;10.90;86.20
20672;DHT22;10495;50.922;4.760;2022-11-11T08:28:47;11.10;86.40
20672;DHT22;10495;50.922;4.760;2022-11-11T08:31:12;11.30;85.60
20672;DHT22;10495;50.922;4.760;2022-11-11T08:33:38;11.50;85.00
20672;DHT22;10495;50.922;4.760;2022-11-11T08:36:04;11.60;84.60
20672;DHT22;10495;50.922;4.760;2022-11-11T08:38:32;11.50;83.90
20672;DHT22;10495;50.922;4.760;2022-11-11T08:40:59;11.60;84.70
20672;DHT22;10495;50.922;4.760;2022-11-11T08:43:25;11.60;84.10
20672;DHT22;10495;50.922;4.760;2022-11-11T08:45:52;11.70;84.00
20672;DHT22;10495;50.922;4.760;2022-11-11T08:48:18;11.80;83.40
20672;DHT22;10495;50.922;4.760;2022-11-11T08:50:43;11.60;84.10
20672;DHT22;10495;50.922;4.760;2022-11-11T08:53:10;11.60;84.80
20672;DHT22;10495;50.922;4.760;2022-11-11T08:55:36;11.50;84.70
20672;DHT22;10495;50.922;4.760;2022-11-11T08:58:05;11.80;84.90
20672;DHT22;10495;50.922;4.760;2022-11-11T09:00:32;12.00;84.00
20672;DHT22;10495;50.922;4.760;2022-11-11T09:03:06;12.10;83.20
20672;DHT22;10495;50.922;4.760;2022-11-11T09:05:32;12.50;82.60
20672;DHT22;10495;50.922;4.760;2022-11-11T09:08:01;12.50;82.40
20672;DHT22;10495;50.922;4.760;2022-11-11T09:10:27;12.40;82.60
20672;DHT22;10495;50.922;4.760;2022-11-11T09:12:57;12.50;82.30
20672;DHT22;10495;50.922;4.760;2022-11-11T09:15:22;12.70;82.70
20672;DHT22;10495;50.922;4.760;2022-11-11T09:17:48;12.70;81.80
20672;DHT22;10495;50.922;4.760;2022-11-11T09:20:14;13.00;81.60
20672;DHT22;10495;50.922;4.760;2022-11-11T09:22:44;13.10;80.70
20672;DHT22;10495;50.922;4.760;2022-11-11T09:25:10;13.30;79.80
20672;DHT22;10495;50.922;4.760;2022-11-11T09:27:36;13.20;79.50
20672;DHT22;10495;50.922;4.760;2022-11-11T09:30:03;12.90;79.90
20672;DHT22;10495;50.922;4.760;2022-11-11T09:32:29;12.70;81.20
20672;DHT22;10495;50.922;4.760;2022-11-11T09:34:54;12.50;81.80
20672;DHT22;10495;50.922;4.760;2022-11-11T09:37:20;12.30;82.00
20672;DHT22;10495;50.922;4.760;2022-11-11T09:39:46;12.30;82.40
20672;DHT22;10495;50.922;4.760;2022-11-11T09:48:07;12.20;83.00
20672;DHT22;10495;50.922;4.760;2022-11-11T09:50:36;12.10;83.30
20672;DHT22;10495;50.922;4.760;2022-11-11T09:53:23;12.10;83.40
20672;DHT22;10495;50.922;4.760;2022-11-11T09:55:57;12.40;82.90
20672;DHT22;10495;50.922;4.760;2022-11-11T09:58:31;12.40;83.10
20672;DHT22;10495;50.922;4.760;2022-11-11T10:01:09;12.40;82.70
20672;DHT22;10495;50.922;4.760;2022-11-11T10:03:43;12.50;82.70
20672;DHT22;10495;50.922;4.760;2022-11-11T10:06:16;12.20;82.80
20672;DHT22;10495;50.922;4.760;2022-11-11T10:09:04;12.30;83.00
20672;DHT22;10495;50.922;4.760;2022-11-11T10:11:57;12.40;83.30
20672;DHT22;10495;50.922;4.760;2022-11-11T10:14:33;12.60;83.00
20672;DHT22;10495;50.922;4.760;2022-11-11T10:19:35;12.50;82.90
20672;DHT22;10495;50.922;4.760;2022-11-11T10:22:37;12.60;82.30
20672;DHT22;10495;50.922;4.760;2022-11-11T10:27:43;12.60;82.40
20672;DHT22;10495;50.922;4.760;2022-11-11T10:30:30;12.90;81.60
20672;DHT22;10495;50.922;4.760;2022-11-11T10:35:28;13.00;81.20
20672;DHT22;10495;50.922;4.760;2022-11-11T10:41:12;12.90;81.50
20672;DHT22;10495;50.922;4.760;2022-11-11T10:43:44;12.90;81.50
20672;DHT22;10495;50.922;4.760;2022-11-11T10:46:17;12.90;81.50
20672;DHT22;10495;50.922;4.760;2022-11-11T10:49:05;13.10;81.40
20672;DHT22;10495;50.922;4.760;2022-11-11T10:51:44;13.20;81.10
20672;DHT22;10495;50.922;4.760;2022-11-11T10:54:12;13.20;81.20
20672;DHT22;10495;50.922;4.760;2022-11-11T10:56:58;13.30;81.40
20672;DHT22;10495;50.922;4.760;2022-11-11T10:59:41;13.50;81.00
20672;DHT22;10495;50.922;4.760;2022-11-11T11:02:23;13.60;81.20
20672;DHT22;10495;50.922;4.760;2022-11-11T11:05:10;13.50;81.00
20672;DHT22;10495;50.922;4.760;2022-11-11T11:07:44;13.60;81.00
20672;DHT22;10495;50.922;4.760;2022-11-11T11:10:20;13.70;80.50
20672;DHT22;10495;50.922;4.760;2022-11-11T11:15:25;14.00;79.40
20672;DHT22;10495;50.922;4.760;2022-11-11T11:18:05;13.80;79.10
20672;DHT22;10495;50.922;4.760;2022-11-11T11:20:32;13.80;79.60
20672;DHT22;10495;50.922;4.760;2022-11-11T11:22:58;13.90;79.70
20672;DHT22;10495;50.922;4.760;2022-11-11T11:25:26;14.00;79.60
20672;DHT22;10495;50.922;4.760;2022-11-11T11:28:10;14.00;79.00
20672;DHT22;10495;50.922;4.760;2022-11-11T11:30:36;14.20;78.90
20672;DHT22;10495;50.922;4.760;2022-11-11T11:33:04;14.20;78.90
20672;DHT22;10495;50.922;4.760;2022-11-11T11:35:41;14.30;78.10
20672;DHT22;10495;50.922;4.760;2022-11-11T11:38:10;14.30;78.60
20672;DHT22;10495;50.922;4.760;2022-11-11T11:40:55;14.30;78.70
20672;DHT22;10495;50.922;4.760;2022-11-11T11:43:36;14.40;78.60
20672;DHT22;10495;50.922;4.760;2022-11-11T11:46:23;14.40;76.90
20672;DHT22;10495;50.922;4.760;2022-11-11T11:49:24;14.30;77.80
20672;DHT22;10495;50.922;4.760;2022-11-11T11:52:03;14.30;77.80
20672;DHT22;10495;50.922;4.760;2022-11-11T11:55:00;14.50;77.20
20672;DHT22;10495;50.922;4.760;2022-11-11T12:00:30;14.30;77.70
20672;DHT22;10495;50.922;4.760;2022-11-11T12:03:26;14.40;77.80
20672;DHT22;10495;50.922;4.760;2022-11-11T12:06:28;14.40;77.70
20672;DHT22;10495;50.922;4.760;2022-11-11T12:12:16;14.50;76.10
20672;DHT22;10495;50.922;4.760;2022-11-11T12:15:02;14.60;76.40
20672;DHT22;10495;50.922;4.760;2022-11-11T12:17:49;14.60;75.70
20672;DHT22;10495;50.922;4.760;2022-11-11T12:20:23;14.60;75.90
20672;DHT22;10495;50.922;4.760;2022-11-11T12:29:10;14.60;77.20
20672;DHT22;10495;50.922;4.760;2022-11-11T12:34:28;14.80;77.30
20672;DHT22;10495;50.922;4.760;2022-11-11T12:40:18;14.90;77.10
20672;DHT22;10495;50.922;4.760;2022-11-11T12:51:07;15.30;75.20
20672;DHT22;10495;50.922;4.760;2022-11-11T12:53:52;15.50;73.70
20672;DHT22;10495;50.922;4.760;2022-11-11T12:59:19;15.60;73.50
20672;DHT22;10495;50.922;4.760;2022-11-11T13:01:56;15.70;73.10
20672;DHT22;10495;50.922;4.760;2022-11-11T13:15:57;15.80;72.80
20672;DHT22;10495;50.922;4.760;2022-11-11T13:23:58;15.80;71.60
20672;DHT22;10495;50.922;4.760;2022-11-11T13:26:36;15.80;71.50
20672;DHT22;10495;50.922;4.760;2022-11-11T13:31:50;15.90;71.40
20672;DHT22;10495;50.922;4.760;2022-11-11T13:34:17;16.10;70.40
20672;DHT22;10495;50.922;4.760;2022-11-11T13:36:46;16.40;69.60
20672;DHT22;10495;50.922;4.760;2022-11-11T13:39:29;16.30;70.20
20672;DHT22;10495;50.922;4.760;2022-11-11T13:41:56;15.90;71.80
20672;DHT22;10495;50.922;4.760;2022-11-11T13:44:48;15.80;72.30
20672;DHT22;10495;50.922;4.760;2022-11-11T13:47:17;15.70;72.90
20672;DHT22;10495;50.922;4.760;2022-11-11T13:49:56;15.70;73.00
20672;DHT22;10495;50.922;4.760;2022-11-11T13:52:29;15.70;73.00
20672;DHT22;10495;50.922;4.760;2022-11-11T13:55:05;15.90;71.30
20672;DHT22;10495;50.922;4.760;2022-11-11T13:57:33;15.90;70.40
20672;DHT22;10495;50.922;4.760;2022-11-11T14:00:05;15.70;71.30
20672;DHT22;10495;50.922;4.760;2022-11-11T14:02:33;15.70;71.80
20672;DHT22;10495;50.922;4.760;2022-11-11T14:12:42;15.90;70.30
20672;DHT22;10495;50.922;4.760;2022-11-11T14:20:44;15.80;71.00
20672;DHT22;10495;50.922;4.760;2022-11-11T14:23:39;15.80;69.80
20672;DHT22;10495;50.922;4.760;2022-11-11T14:28:56;15.50;70.80
20672;DHT22;10495;50.922;4.760;2022-11-11T14:34:03;15.50;70.70
20672;DHT22;10495;50.922;4.760;2022-11-11T14:57:40;15.00;72.20
20672;DHT22;10495;50.922;4.760;2022-11-11T15:11:45;14.60;73.40
20672;DHT22;10495;50.922;4.760;2022-11-11T15:17:12;14.50;74.00
20672;DHT22;10495;50.922;4.760;2022-11-11T15:28:03;14.10;74.50
20672;DHT22;10495;50.922;4.760;2022-11-11T15:33:58;13.90;74.70
20672;DHT22;10495;50.922;4.760;2022-11-11T15:36:46;13.80;74.80
20672;DHT22;10495;50.922;4.760;2022-11-11T15:39:18;13.80;74.90
20672;DHT22;10495;50.922;4.760;2022-11-11T15:41:47;13.80;75.10
20672;DHT22;10495;50.922;4.760;2022-11-11T15:44:26;13.80;75.10
20672;DHT22;10495;50.922;4.760;2022-11-11T15:46:53;13.60;75.30
20672;DHT22;10495;50.922;4.760;2022-11-11T15:49:44;13.50;75.50
20672;DHT22;10495;50.922;4.760;2022-11-11T15:52:32;13.40;75.70
20672;DHT22;10495;50.922;4.760;2022-11-11T15:55:00;13.20;76.00
20672;DHT22;10495;50.922;4.760;2022-11-11T15:57:30;13.10;76.20
20672;DHT22;10495;50.922;4.760;2022-11-11T16:00:00;13.00;76.40
20672;DHT22;10495;50.922;4.760;2022-11-11T16:02:30;13.00;76.70
20672;DHT22;10495;50.922;4.760;2022-11-11T16:04:58;12.80;76.90
20672;DHT22;10495;50.922;4.760;2022-11-11T16:07:36;12.80;76.90
20672;DHT22;10495;50.922;4.760;2022-11-11T16:10:18;12.90;77.60
20672;DHT22;10495;50.922;4.760;2022-11-11T16:18:33;12.60;78.30
20672;DHT22;10495;50.922;4.760;2022-11-11T16:21:23;12.50;78.60
20672;DHT22;10495;50.922;4.760;2022-11-11T16:23:52;12.30;78.90
20672;DHT22;10495;50.922;4.760;2022-11-11T16:26:19;12.20;79.30
20672;DHT22;10495;50.922;4.760;2022-11-11T16:28:50;12.10;79.50
20672;DHT22;10495;50.922;4.760;2022-11-11T16:33:46;11.90;79.70
20672;DHT22;10495;50.922;4.760;2022-11-11T16:36:11;11.80;79.80
20672;DHT22;10495;50.922;4.760;2022-11-11T16:38:37;11.80;79.70
20672;DHT22;10495;50.922;4.760;2022-11-11T16:41:20;11.80;80.10
20672;DHT22;10495;50.922;4.760;2022-11-11T16:43:47;11.70;80.00
20672;DHT22;10495;50.922;4.760;2022-11-11T16:46:14;11.80;80.50
20672;DHT22;10495;50.922;4.760;2022-11-11T16:48:49;11.60;80.70
20672;DHT22;10495;50.922;4.760;2022-11-11T16:51:19;11.60;80.50
20672;DHT22;10495;50.922;4.760;2022-11-11T16:53:54;11.60;80.80
20672;DHT22;10495;50.922;4.760;2022-11-11T16:56:29;11.50;80.70
20672;DHT22;10495;50.922;4.760;2022-11-11T16:59:05;11.30;80.90
20672;DHT22;10495;50.922;4.760;2022-11-11T17:01:43;11.20;81.80
20672;DHT22;10495;50.922;4.760;2022-11-11T17:04:10;11.10;81.90
20672;DHT22;10495;50.922;4.760;2022-11-11T17:09:40;11.00;81.90
20672;DHT22;10495;50.922;4.760;2022-11-11T17:12:07;10.90;82.20
20672;DHT22;10495;50.922;4.760;2022-11-11T17:14:37;10.90;82.50
20672;DHT22;10495;50.922;4.760;2022-11-11T17:17:05;10.80;82.80
20672;DHT22;10495;50.922;4.760;2022-11-11T17:19:32;10.70;83.20
20672;DHT22;10495;50.922;4.760;2022-11-11T17:22:06;10.70;82.80
20672;DHT22;10495;50.922;4.760;2022-11-11T17:24:32;10.70;82.70
20672;DHT22;10495;50.922;4.760;2022-11-11T17:26:57;10.60;82.60
20672;DHT22;10495;50.922;4.760;2022-11-11T17:29:23;10.60;82.70
20672;DHT22;10495;50.922;4.760;2022-11-11T17:31:48;10.50;82.70
20672;DHT22;10495;50.922;4.760;2022-11-11T17:34:14;10.50;82.70
20672;DHT22;10495;50.922;4.760;2022-11-11T17:36:39;10.40;82.70
20672;DHT22;10495;50.922;4.760;2022-11-11T17:39:05;10.40;82.70
20672;DHT22;10495;50.922;4.760;2022-11-11T17:41:31;10.40;82.80
20672;DHT22;10495;50.922;4.760;2022-11-11T17:43:56;10.30;82.90
20672;DHT22;10495;50.922;4.760;2022-11-11T17:46:22;10.30;83.00
20672;DHT22;10495;50.922;4.760;2022-11-11T17:48:51;10.30;83.00
20672;DHT22;10495;50.922;4.760;2022-11-11T17:51:19;10.20;82.80
20672;DHT22;10495;50.922;4.760;2022-11-11T17:53:44;10.20;83.10
20672;DHT22;10495;50.922;4.760;2022-11-11T17:56:10;10.20;83.20
20672;DHT22;10495;50.922;4.760;2022-11-11T17:58:36;10.20;83.30
20672;DHT22;10495;50.922;4.760;2022-11-11T18:01:08;10.20;83.50
20672;DHT22;10495;50.922;4.760;2022-11-11T18:03:34;10.10;83.80
20672;DHT22;10495;50.922;4.760;2022-11-11T18:05:59;10.10;83.90
20672;DHT22;10495;50.922;4.760;2022-11-11T18:08:25;10.40;83.30
20672;DHT22;10495;50.922;4.760;2022-11-11T18:10:51;10.20;83.70
20672;DHT22;10495;50.922;4.760;2022-11-11T18:13:16;10.20;84.10
20672;DHT22;10495;50.922;4.760;2022-11-11T18:15:42;10.10;84.30
20672;DHT22;10495;50.922;4.760;2022-11-11T18:18:07;10.00;84.30
20672;DHT22;10495;50.922;4.760;2022-11-11T18:20:33;10.00;84.20
20672;DHT22;10495;50.922;4.760;2022-11-11T18:22:58;9.90;84.10
20672;DHT22;10495;50.922;4.760;2022-11-11T18:25:24;9.90;84.20
20672;DHT22;10495;50.922;4.760;2022-11-11T18:27:52;9.90;84.20
20672;DHT22;10495;50.922;4.760;2022-11-11T18:30:18;9.90;84.30
20672;DHT22;10495;50.922;4.760;2022-11-11T18:32:44;9.80;84.30